RYR25Q LFTW-LPPR
Flight info
| Callsign | RYR25Q |
|---|---|
| Flight time | 2h 0m |
| Altitude | 35000 |
| Route | FJR DCT GAI DCT AGN DCT LATEK DCT PPN DCT MIRPO DCT DGO DCT NEA DCT ZMR L155 ADORO DCT CANAR DCT INKIT |
| Aircraft | B738/M-SDE3FGILRWY/SB1 |
Departure
| Time | 2026-04-15 13:42 |
|---|---|
| Airport | Nîmes-Arles-Camargue Airport (LFTW) |
Arrival
| Time | 2026-04-15 15:42 |
|---|---|
| Airport | Francisco de Sá Carneiro Airport (LPPR) |
| Time | Latitude | Longitude | Altitude | Speed | Heading |
|---|---|---|---|---|---|
| 2026-04-15 13:29 | 43.76356 | 4.42059 | 309 ft | 0 kts | 88° |
| 2026-04-15 13:35 | 43.76356 | 4.42057 | 309 ft | 2 kts | 88° |
| 2026-04-15 13:35 | 43.76353 | 4.42023 | 308 ft | 4 kts | 61° |
| 2026-04-15 13:35 | 43.76338 | 4.42005 | 308 ft | 4 kts | 349° |
| 2026-04-15 13:36 | 43.76328 | 4.42008 | 308 ft | 1 kts | 339° |
| 2026-04-15 13:38 | 43.76334 | 4.42005 | 308 ft | 2 kts | 339° |
| 2026-04-15 13:38 | 43.76357 | 4.41993 | 309 ft | 5 kts | 339° |
| 2026-04-15 13:39 | 43.76386 | 4.41942 | 309 ft | 9 kts | 280° |
| 2026-04-15 13:39 | 43.76385 | 4.41841 | 310 ft | 12 kts | 266° |
| 2026-04-15 13:39 | 43.76380 | 4.41712 | 309 ft | 15 kts | 267° |
| 2026-04-15 13:39 | 43.76437 | 4.41589 | 310 ft | 18 kts | 348° |
| 2026-04-15 13:40 | 43.76562 | 4.41576 | 310 ft | 18 kts | 357° |
| 2026-04-15 13:40 | 43.76689 | 4.41567 | 307 ft | 19 kts | 356° |
| 2026-04-15 13:40 | 43.76793 | 4.41590 | 308 ft | 14 kts | 357° |
| 2026-04-15 13:40 | 43.76793 | 4.41565 | 306 ft | 3 kts | 213° |
| 2026-04-15 13:41 | 43.76771 | 4.41561 | 307 ft | 0 kts | 179° |
| 2026-04-15 13:41 | 43.76768 | 4.41561 | 309 ft | 6 kts | 179° |
| 2026-04-15 13:41 | 43.76482 | 4.41581 | 309 ft | 78 kts | 177° |
| 2026-04-15 13:41 | 43.75701 | 4.41637 | 309 ft | 144 kts | 177° |
| 2026-04-15 13:42 | 43.75343 | 4.41662 | 316 ft | 162 kts | 177° |
| 2026-04-15 13:42 | 43.71952 | 4.41939 | 1814 ft | 197 kts | 178° |
| 2026-04-15 13:42 | 43.70485 | 4.42036 | 2151 ft | 225 kts | 177° |
| 2026-04-15 13:43 | 43.68840 | 4.41990 | 2483 ft | 245 kts | 195° |
| 2026-04-15 13:43 | 43.67439 | 4.40713 | 3005 ft | 246 kts | 236° |
| 2026-04-15 13:43 | 43.66930 | 4.38532 | 3650 ft | 240 kts | 275° |
| 2026-04-15 13:43 | 43.67062 | 4.36165 | 4085 ft | 260 kts | 266° |
| 2026-04-15 13:44 | 43.66685 | 4.33670 | 4810 ft | 270 kts | 260° |
| 2026-04-15 13:44 | 43.66249 | 4.31126 | 5658 ft | 272 kts | 259° |
| 2026-04-15 13:44 | 43.65832 | 4.28578 | 6565 ft | 273 kts | 259° |
| 2026-04-15 13:44 | 43.65429 | 4.26010 | 7396 ft | 275 kts | 261° |
| 2026-04-15 13:45 | 43.65036 | 4.23401 | 8156 ft | 280 kts | 261° |
| 2026-04-15 13:45 | 43.64646 | 4.20744 | 8933 ft | 284 kts | 261° |
| 2026-04-15 13:45 | 43.64262 | 4.18058 | 9746 ft | 287 kts | 261° |
| 2026-04-15 13:47 | 43.61207 | 3.96086 | 13650 ft | 360 kts | 261° |
| 2026-04-15 13:47 | 43.60736 | 3.92683 | 14348 ft | 364 kts | 261° |
| 2026-04-15 13:47 | 43.60264 | 3.89275 | 15044 ft | 368 kts | 261° |
| 2026-04-15 13:48 | 43.59781 | 3.85794 | 15772 ft | 371 kts | 261° |
| 2026-04-15 13:48 | 43.59292 | 3.82273 | 16496 ft | 375 kts | 262° |
| 2026-04-15 13:48 | 43.58799 | 3.78727 | 17218 ft | 377 kts | 262° |
| 2026-04-15 13:48 | 43.58302 | 3.75170 | 17975 ft | 380 kts | 262° |
| 2026-04-15 13:49 | 43.57798 | 3.71564 | 18575 ft | 385 kts | 262° |
| 2026-04-15 13:49 | 43.57288 | 3.67922 | 19154 ft | 389 kts | 262° |
| 2026-04-15 13:49 | 43.56771 | 3.64236 | 19704 ft | 393 kts | 262° |
| 2026-04-15 13:49 | 43.56248 | 3.60526 | 20312 ft | 396 kts | 262° |
| 2026-04-15 13:50 | 43.55719 | 3.56784 | 20912 ft | 399 kts | 262° |
| 2026-04-15 13:50 | 43.55186 | 3.53022 | 21504 ft | 402 kts | 262° |
| 2026-04-15 13:50 | 43.54648 | 3.49232 | 22066 ft | 405 kts | 262° |
| 2026-04-15 13:50 | 43.54103 | 3.45402 | 22627 ft | 408 kts | 262° |
| 2026-04-15 13:51 | 43.53555 | 3.41556 | 23160 ft | 411 kts | 262° |
| 2026-04-15 13:51 | 43.52999 | 3.37672 | 23692 ft | 414 kts | 262° |
| 2026-04-15 13:51 | 43.52439 | 3.33763 | 24140 ft | 417 kts | 262° |
| 2026-04-15 13:51 | 43.51873 | 3.29830 | 24598 ft | 420 kts | 262° |
| 2026-04-15 13:52 | 43.51304 | 3.25877 | 25041 ft | 422 kts | 262° |
| 2026-04-15 13:52 | 43.50729 | 3.21899 | 25495 ft | 424 kts | 262° |
| 2026-04-15 13:52 | 43.50149 | 3.17899 | 25915 ft | 427 kts | 262° |
| 2026-04-15 13:52 | 43.49565 | 3.13879 | 26325 ft | 429 kts | 262° |
| 2026-04-15 13:53 | 43.48977 | 3.09836 | 26736 ft | 432 kts | 262° |
| 2026-04-15 13:53 | 43.48383 | 3.05767 | 27139 ft | 434 kts | 262° |
| 2026-04-15 13:53 | 43.47786 | 3.01688 | 27615 ft | 434 kts | 262° |
| 2026-04-15 13:53 | 43.47186 | 2.97610 | 28074 ft | 435 kts | 262° |
| 2026-04-15 13:54 | 43.46591 | 2.93565 | 28419 ft | 438 kts | 262° |
| 2026-04-15 13:54 | 43.45983 | 2.89443 | 28825 ft | 440 kts | 262° |
| 2026-04-15 13:54 | 43.45375 | 2.85338 | 29402 ft | 437 kts | 262° |
| 2026-04-15 13:54 | 43.44768 | 2.81258 | 30010 ft | 434 kts | 262° |
| 2026-04-15 13:55 | 43.44163 | 2.77192 | 30499 ft | 432 kts | 262° |
| 2026-04-15 13:55 | 43.43559 | 2.73143 | 30935 ft | 431 kts | 262° |
| 2026-04-15 13:55 | 43.42955 | 2.69104 | 31375 ft | 430 kts | 262° |
| 2026-04-15 13:55 | 43.42364 | 2.65163 | 31950 ft | 423 kts | 261° |
| 2026-04-15 13:56 | 43.41774 | 2.61251 | 32739 ft | 413 kts | 261° |
| 2026-04-15 13:56 | 43.41193 | 2.57396 | 33208 ft | 412 kts | 261° |
| 2026-04-15 13:56 | 43.40611 | 2.53530 | 33457 ft | 414 kts | 261° |
| 2026-04-15 13:56 | 43.40023 | 2.49637 | 33728 ft | 416 kts | 262° |
| 2026-04-15 13:57 | 43.39433 | 2.45737 | 34068 ft | 417 kts | 262° |
| 2026-04-15 13:57 | 43.38843 | 2.41854 | 34488 ft | 414 kts | 262° |
| 2026-04-15 13:57 | 43.38255 | 2.37998 | 34881 ft | 411 kts | 262° |
| 2026-04-15 13:57 | 43.37669 | 2.34164 | 35179 ft | 409 kts | 262° |
| 2026-04-15 13:58 | 43.36492 | 2.26488 | 35178 ft | 410 kts | 261° |
| 2026-04-15 13:58 | 43.35318 | 2.18874 | 35186 ft | 405 kts | 261° |
| 2026-04-15 13:59 | 43.34150 | 2.11321 | 35183 ft | 403 kts | 261° |
| 2026-04-15 13:59 | 43.32979 | 2.03789 | 35183 ft | 402 kts | 261° |
| 2026-04-15 14:00 | 43.31807 | 1.96278 | 35186 ft | 402 kts | 261° |
| 2026-04-15 14:00 | 43.30628 | 1.88765 | 35193 ft | 403 kts | 261° |
| 2026-04-15 14:01 | 43.28846 | 1.77472 | 35183 ft | 404 kts | 260° |
| 2026-04-15 14:02 | 43.27658 | 1.69990 | 35184 ft | 404 kts | 260° |
| 2026-04-15 14:02 | 43.26457 | 1.62459 | 35188 ft | 404 kts | 260° |
| 2026-04-15 14:03 | 43.25250 | 1.54920 | 35190 ft | 404 kts | 260° |
| 2026-04-15 14:03 | 43.24040 | 1.47399 | 35197 ft | 404 kts | 260° |
| 2026-04-15 14:04 | 43.22827 | 1.39893 | 35188 ft | 402 kts | 260° |
| 2026-04-15 14:04 | 43.21613 | 1.32416 | 35180 ft | 401 kts | 260° |
| 2026-04-15 14:05 | 43.20401 | 1.24978 | 35192 ft | 399 kts | 260° |
| 2026-04-15 14:05 | 43.19187 | 1.17564 | 35195 ft | 398 kts | 260° |
| 2026-04-15 14:06 | 43.17971 | 1.10173 | 35199 ft | 397 kts | 259° |
| 2026-04-15 14:06 | 43.16960 | 1.04049 | 35193 ft | 396 kts | 259° |
| 2026-04-15 14:07 | 43.15742 | 0.96696 | 35204 ft | 395 kts | 259° |
| 2026-04-15 14:07 | 43.14521 | 0.89364 | 35200 ft | 394 kts | 259° |
| 2026-04-15 14:08 | 43.13298 | 0.82043 | 35199 ft | 394 kts | 259° |
| 2026-04-15 14:08 | 43.12071 | 0.74731 | 35206 ft | 394 kts | 259° |
| 2026-04-15 14:09 | 43.10838 | 0.67416 | 35200 ft | 394 kts | 259° |
| 2026-04-15 14:09 | 43.09622 | 0.60230 | 35204 ft | 394 kts | 259° |
| 2026-04-15 14:10 | 43.08383 | 0.52939 | 35203 ft | 393 kts | 259° |
| 2026-04-15 14:10 | 43.07141 | 0.45661 | 35203 ft | 393 kts | 259° |
| 2026-04-15 14:11 | 43.05894 | 0.38387 | 35207 ft | 393 kts | 259° |
| 2026-04-15 14:11 | 43.04644 | 0.31121 | 35208 ft | 392 kts | 258° |
| 2026-04-15 14:12 | 43.03391 | 0.23865 | 35208 ft | 391 kts | 258° |
| 2026-04-15 14:12 | 43.02137 | 0.16638 | 35200 ft | 391 kts | 258° |
| 2026-04-15 14:13 | 43.00879 | 0.09417 | 35187 ft | 390 kts | 258° |
| 2026-04-15 14:13 | 42.99619 | 0.02211 | 35195 ft | 390 kts | 258° |
| 2026-04-15 14:14 | 42.98355 | -0.04995 | 35218 ft | 390 kts | 258° |
| 2026-04-15 14:14 | 42.97084 | -0.12201 | 35210 ft | 390 kts | 258° |
| 2026-04-15 14:15 | 42.95812 | -0.19392 | 35210 ft | 389 kts | 258° |
| 2026-04-15 14:15 | 42.94538 | -0.26561 | 35210 ft | 388 kts | 258° |
| 2026-04-15 14:16 | 42.93265 | -0.33706 | 35197 ft | 388 kts | 258° |
| 2026-04-15 14:16 | 42.91987 | -0.40843 | 35194 ft | 387 kts | 258° |
| 2026-04-15 14:17 | 42.90703 | -0.47984 | 35194 ft | 386 kts | 258° |
| 2026-04-15 14:17 | 42.89420 | -0.55101 | 35188 ft | 387 kts | 258° |
| 2026-04-15 14:18 | 42.88131 | -0.62220 | 35172 ft | 386 kts | 258° |
| 2026-04-15 14:18 | 42.86954 | -0.69357 | 35200 ft | 386 kts | 261° |
| 2026-04-15 14:19 | 42.86024 | -0.76565 | 35199 ft | 386 kts | 261° |
| 2026-04-15 14:19 | 42.85109 | -0.83792 | 35178 ft | 387 kts | 261° |
| 2026-04-15 14:20 | 42.84172 | -0.91002 | 35175 ft | 387 kts | 261° |
| 2026-04-15 14:20 | 42.83224 | -0.98170 | 35173 ft | 387 kts | 261° |
| 2026-04-15 14:21 | 42.82264 | -1.05372 | 35167 ft | 386 kts | 261° |
| 2026-04-15 14:21 | 42.81301 | -1.12546 | 35178 ft | 385 kts | 261° |
| 2026-04-15 14:22 | 42.80336 | -1.19713 | 35185 ft | 384 kts | 260° |
| 2026-04-15 14:22 | 42.79369 | -1.26851 | 35177 ft | 383 kts | 260° |
| 2026-04-15 14:23 | 42.78400 | -1.33973 | 35186 ft | 382 kts | 260° |
| 2026-04-15 14:23 | 42.77430 | -1.41069 | 35180 ft | 381 kts | 260° |
| 2026-04-15 14:24 | 42.76458 | -1.48145 | 35180 ft | 380 kts | 260° |
| 2026-04-15 14:24 | 42.75486 | -1.55191 | 35203 ft | 378 kts | 260° |
| 2026-04-15 14:25 | 42.74512 | -1.62218 | 35189 ft | 377 kts | 260° |
| 2026-04-15 14:25 | 42.73534 | -1.69228 | 35178 ft | 376 kts | 259° |
| 2026-04-15 14:26 | 42.72122 | -1.76073 | 35179 ft | 376 kts | 254° |
| 2026-04-15 14:26 | 42.70561 | -1.82844 | 35186 ft | 375 kts | 254° |
| 2026-04-15 14:27 | 42.69009 | -1.89621 | 35176 ft | 375 kts | 254° |
| 2026-04-15 14:27 | 42.67468 | -1.96389 | 35166 ft | 375 kts | 254° |
| 2026-04-15 14:28 | 42.65935 | -2.03114 | 35172 ft | 375 kts | 254° |
| 2026-04-15 14:28 | 42.64391 | -2.09868 | 35179 ft | 374 kts | 254° |
| 2026-04-15 14:29 | 42.62840 | -2.16616 | 35177 ft | 374 kts | 253° |
| 2026-04-15 14:29 | 42.61221 | -2.23335 | 35183 ft | 374 kts | 253° |
| 2026-04-15 14:30 | 42.59583 | -2.30040 | 35199 ft | 374 kts | 253° |
| 2026-04-15 14:30 | 42.57947 | -2.36743 | 35186 ft | 375 kts | 253° |
| 2026-04-15 14:31 | 42.56307 | -2.43461 | 35184 ft | 374 kts | 253° |
| 2026-04-15 14:31 | 42.54668 | -2.50159 | 35179 ft | 374 kts | 253° |
| 2026-04-15 14:32 | 42.53032 | -2.56829 | 35182 ft | 373 kts | 253° |
| 2026-04-15 14:32 | 42.51391 | -2.63497 | 35178 ft | 372 kts | 253° |
| 2026-04-15 14:33 | 42.49762 | -2.70101 | 35188 ft | 371 kts | 253° |
| 2026-04-15 14:33 | 42.48123 | -2.76727 | 35180 ft | 371 kts | 252° |
| 2026-04-15 14:34 | 42.46483 | -2.83340 | 35181 ft | 370 kts | 252° |
| 2026-04-15 14:34 | 42.44739 | -2.89883 | 35180 ft | 370 kts | 248° |
| 2026-04-15 14:35 | 42.42594 | -2.96197 | 35177 ft | 370 kts | 247° |
| 2026-04-15 14:35 | 42.40426 | -3.02498 | 35188 ft | 369 kts | 247° |
| 2026-04-15 14:36 | 42.38269 | -3.08793 | 35199 ft | 369 kts | 247° |
| 2026-04-15 14:36 | 42.36112 | -3.15099 | 35160 ft | 370 kts | 247° |
| 2026-04-15 14:37 | 42.33955 | -3.21398 | 35201 ft | 369 kts | 248° |
| 2026-04-15 14:37 | 42.31798 | -3.27688 | 35215 ft | 369 kts | 247° |
| 2026-04-15 14:38 | 42.29637 | -3.33974 | 35223 ft | 369 kts | 247° |
| 2026-04-15 14:38 | 42.27467 | -3.40275 | 35230 ft | 370 kts | 247° |
| 2026-04-15 14:39 | 42.25303 | -3.46541 | 35246 ft | 371 kts | 247° |
| 2026-04-15 14:39 | 42.23121 | -3.52846 | 35231 ft | 371 kts | 247° |
| 2026-04-15 14:40 | 42.20938 | -3.59139 | 35228 ft | 370 kts | 247° |
| 2026-04-15 14:40 | 42.18758 | -3.65408 | 35224 ft | 369 kts | 247° |
| 2026-04-15 14:41 | 42.16582 | -3.71655 | 35202 ft | 367 kts | 247° |
| 2026-04-15 14:41 | 42.14410 | -3.77874 | 35202 ft | 366 kts | 247° |
| 2026-04-15 14:42 | 42.12240 | -3.84074 | 35208 ft | 365 kts | 247° |
| 2026-04-15 14:42 | 42.10071 | -3.90259 | 35207 ft | 365 kts | 247° |
| 2026-04-15 14:43 | 42.07902 | -3.96431 | 35211 ft | 365 kts | 247° |
| 2026-04-15 14:43 | 42.05729 | -4.02603 | 35211 ft | 365 kts | 247° |
| 2026-04-15 14:44 | 42.03553 | -4.08768 | 35209 ft | 365 kts | 247° |
| 2026-04-15 14:44 | 42.01442 | -4.14977 | 35212 ft | 365 kts | 249° |
| 2026-04-15 14:45 | 41.99468 | -4.21265 | 35214 ft | 365 kts | 249° |
| 2026-04-15 14:45 | 41.97495 | -4.27555 | 35223 ft | 365 kts | 249° |
| 2026-04-15 14:46 | 41.95503 | -4.33848 | 35221 ft | 366 kts | 249° |
| 2026-04-15 14:46 | 41.93512 | -4.40098 | 35224 ft | 366 kts | 249° |
| 2026-04-15 14:47 | 41.91503 | -4.46378 | 35220 ft | 366 kts | 249° |
| 2026-04-15 14:47 | 41.89487 | -4.52665 | 35197 ft | 367 kts | 249° |
| 2026-04-15 14:48 | 41.87467 | -4.58949 | 35223 ft | 367 kts | 249° |
| 2026-04-15 14:48 | 41.85441 | -4.65236 | 35225 ft | 367 kts | 249° |
| 2026-04-15 14:49 | 41.83411 | -4.71521 | 35233 ft | 367 kts | 248° |
| 2026-04-15 14:49 | 41.81376 | -4.77808 | 35238 ft | 367 kts | 248° |
| 2026-04-15 14:50 | 41.79339 | -4.84083 | 35239 ft | 367 kts | 248° |
| 2026-04-15 14:50 | 41.77302 | -4.90349 | 35239 ft | 367 kts | 248° |
| 2026-04-15 14:51 | 41.75263 | -4.96604 | 35253 ft | 366 kts | 248° |
| 2026-04-15 14:51 | 41.73221 | -5.02852 | 35237 ft | 366 kts | 248° |
| 2026-04-15 14:52 | 41.71183 | -5.09076 | 35233 ft | 364 kts | 248° |
| 2026-04-15 14:52 | 41.69146 | -5.15282 | 35231 ft | 363 kts | 248° |
| 2026-04-15 14:53 | 41.67114 | -5.21459 | 35232 ft | 362 kts | 248° |
| 2026-04-15 14:53 | 41.65083 | -5.27622 | 35203 ft | 362 kts | 248° |
| 2026-04-15 14:54 | 41.63049 | -5.33778 | 35223 ft | 362 kts | 248° |
| 2026-04-15 14:54 | 41.61009 | -5.39938 | 35220 ft | 363 kts | 248° |
| 2026-04-15 14:55 | 41.59311 | -5.45058 | 35218 ft | 363 kts | 248° |
| 2026-04-15 14:55 | 41.57256 | -5.51240 | 35218 ft | 364 kts | 248° |
| 2026-04-15 14:56 | 41.55202 | -5.57407 | 35224 ft | 364 kts | 248° |
| 2026-04-15 14:56 | 41.53313 | -5.63674 | 35218 ft | 364 kts | 255° |
| 2026-04-15 14:57 | 41.52500 | -5.70315 | 35230 ft | 363 kts | 263° |
| 2026-04-15 14:57 | 41.52043 | -5.77039 | 35219 ft | 364 kts | 263° |
| 2026-04-15 14:58 | 41.51578 | -5.83750 | 35218 ft | 363 kts | 263° |
| 2026-04-15 14:58 | 41.51098 | -5.90440 | 35207 ft | 356 kts | 263° |
| 2026-04-15 14:58 | 41.50865 | -5.93660 | 35201 ft | 342 kts | 263° |
| 2026-04-15 14:59 | 41.50639 | -5.96752 | 35204 ft | 328 kts | 263° |
| 2026-04-15 14:59 | 41.50421 | -5.99722 | 35197 ft | 315 kts | 263° |
| 2026-04-15 14:59 | 41.50211 | -6.02574 | 35206 ft | 302 kts | 263° |
| 2026-04-15 14:59 | 41.50011 | -6.05270 | 35211 ft | 300 kts | 263° |
| 2026-04-15 15:00 | 41.49804 | -6.08042 | 35226 ft | 302 kts | 263° |
| 2026-04-15 15:00 | 41.49388 | -6.13605 | 35233 ft | 306 kts | 263° |
| 2026-04-15 15:01 | 41.48965 | -6.19221 | 35227 ft | 305 kts | 263° |
| 2026-04-15 15:01 | 41.48541 | -6.24831 | 35222 ft | 304 kts | 263° |
| 2026-04-15 15:02 | 41.48488 | -6.30430 | 35216 ft | 308 kts | 282° |
| 2026-04-15 15:02 | 41.50501 | -6.35587 | 35234 ft | 321 kts | 298° |
| 2026-04-15 15:03 | 41.53820 | -6.39794 | 35218 ft | 344 kts | 319° |
| 2026-04-15 15:03 | 41.56053 | -6.41137 | 35218 ft | 361 kts | 333° |
| 2026-04-15 15:03 | 41.58593 | -6.41699 | 35223 ft | 380 kts | 348° |
| 2026-04-15 15:03 | 41.61282 | -6.41337 | 35222 ft | 400 kts | 5° |
| 2026-04-15 15:04 | 41.63924 | -6.39956 | 35224 ft | 418 kts | 22° |
| 2026-04-15 15:04 | 41.66240 | -6.37588 | 35208 ft | 433 kts | 41° |
| 2026-04-15 15:04 | 41.68019 | -6.34288 | 35218 ft | 443 kts | 61° |
| 2026-04-15 15:04 | 41.69076 | -6.30419 | 35201 ft | 446 kts | 81° |
| 2026-04-15 15:05 | 41.69300 | -6.26304 | 35238 ft | 443 kts | 92° |
| 2026-04-15 15:05 | 41.69195 | -6.18013 | 35212 ft | 447 kts | 93° |
| 2026-04-15 15:06 | 41.68452 | -6.05710 | 35197 ft | 435 kts | 122° |
| 2026-04-15 15:06 | 41.66884 | -6.02370 | 35208 ft | 418 kts | 141° |
| 2026-04-15 15:06 | 41.64764 | -5.99871 | 35217 ft | 399 kts | 159° |
| 2026-04-15 15:07 | 41.62286 | -5.98432 | 35221 ft | 381 kts | 179° |
| 2026-04-15 15:07 | 41.59707 | -5.98138 | 35217 ft | 367 kts | 195° |
| 2026-04-15 15:07 | 41.57254 | -5.98841 | 35227 ft | 357 kts | 210° |
| 2026-04-15 15:07 | 41.55087 | -6.00390 | 35230 ft | 351 kts | 224° |
| 2026-04-15 15:08 | 41.53340 | -6.02632 | 35219 ft | 349 kts | 237° |
| 2026-04-15 15:08 | 41.52035 | -6.05370 | 35221 ft | 352 kts | 247° |
| 2026-04-15 15:08 | 41.51276 | -6.08481 | 35229 ft | 357 kts | 259° |
| 2026-04-15 15:08 | 41.50904 | -6.11785 | 35235 ft | 361 kts | 262° |
| 2026-04-15 15:09 | 41.50372 | -6.18445 | 35213 ft | 360 kts | 263° |
| 2026-04-15 15:09 | 41.49855 | -6.25081 | 35212 ft | 359 kts | 263° |
| 2026-04-15 15:10 | 41.49304 | -6.31692 | 35213 ft | 358 kts | 262° |
| 2026-04-15 15:10 | 41.48738 | -6.38211 | 35001 ft | 350 kts | 262° |
| 2026-04-15 15:11 | 41.48461 | -6.41361 | 34778 ft | 342 kts | 262° |
| 2026-04-15 15:11 | 41.48180 | -6.44533 | 34404 ft | 338 kts | 262° |
| 2026-04-15 15:11 | 41.47908 | -6.47591 | 34013 ft | 336 kts | 262° |
| 2026-04-15 15:11 | 41.47632 | -6.50677 | 33608 ft | 333 kts | 262° |
| 2026-04-15 15:12 | 41.47359 | -6.53725 | 33224 ft | 330 kts | 262° |
| 2026-04-15 15:12 | 41.47086 | -6.56756 | 32833 ft | 328 kts | 262° |
| 2026-04-15 15:12 | 41.46815 | -6.59763 | 32458 ft | 325 kts | 262° |
| 2026-04-15 15:12 | 41.46545 | -6.62749 | 32093 ft | 323 kts | 262° |
| 2026-04-15 15:13 | 41.46276 | -6.65713 | 31725 ft | 321 kts | 263° |
| 2026-04-15 15:13 | 41.46007 | -6.68666 | 31355 ft | 319 kts | 263° |
| 2026-04-15 15:13 | 41.45741 | -6.71586 | 31023 ft | 317 kts | 263° |
| 2026-04-15 15:13 | 41.45474 | -6.74500 | 30656 ft | 317 kts | 263° |
| 2026-04-15 15:14 | 41.45207 | -6.77409 | 30306 ft | 315 kts | 263° |
| 2026-04-15 15:14 | 41.44940 | -6.80310 | 29881 ft | 315 kts | 263° |
| 2026-04-15 15:14 | 41.44674 | -6.83198 | 29484 ft | 313 kts | 263° |
| 2026-04-15 15:14 | 41.44407 | -6.86079 | 29096 ft | 312 kts | 263° |
| 2026-04-15 15:15 | 41.44141 | -6.88949 | 28736 ft | 315 kts | 263° |
| 2026-04-15 15:15 | 41.43867 | -6.91894 | 28362 ft | 326 kts | 263° |
| 2026-04-15 15:15 | 41.43588 | -6.94885 | 27988 ft | 330 kts | 263° |
| 2026-04-15 15:15 | 41.43305 | -6.97905 | 27587 ft | 327 kts | 263° |
| 2026-04-15 15:16 | 41.43022 | -7.00920 | 27201 ft | 324 kts | 263° |
| 2026-04-15 15:16 | 41.42742 | -7.03895 | 26824 ft | 323 kts | 263° |
| 2026-04-15 15:16 | 41.42467 | -7.06812 | 26452 ft | 321 kts | 263° |
| 2026-04-15 15:16 | 41.42186 | -7.09785 | 26073 ft | 319 kts | 263° |
| 2026-04-15 15:17 | 41.41911 | -7.12680 | 25702 ft | 318 kts | 263° |
| 2026-04-15 15:17 | 41.41633 | -7.15598 | 25342 ft | 317 kts | 263° |
| 2026-04-15 15:17 | 41.41356 | -7.18509 | 24956 ft | 316 kts | 263° |
| 2026-04-15 15:17 | 41.41077 | -7.21423 | 24564 ft | 317 kts | 263° |
| 2026-04-15 15:18 | 41.40799 | -7.24326 | 24202 ft | 316 kts | 263° |
| 2026-04-15 15:18 | 41.40520 | -7.27227 | 23806 ft | 316 kts | 263° |
| 2026-04-15 15:18 | 41.40241 | -7.30123 | 23403 ft | 315 kts | 263° |
| 2026-04-15 15:18 | 41.39963 | -7.33006 | 23025 ft | 313 kts | 263° |
| 2026-04-15 15:19 | 41.39686 | -7.35871 | 22635 ft | 311 kts | 263° |
| 2026-04-15 15:19 | 41.39409 | -7.38715 | 22288 ft | 309 kts | 263° |
| 2026-04-15 15:19 | 41.39133 | -7.41544 | 21928 ft | 307 kts | 263° |
| 2026-04-15 15:19 | 41.38923 | -7.44352 | 21581 ft | 304 kts | 272° |
| 2026-04-15 15:20 | 41.39359 | -7.47078 | 21264 ft | 301 kts | 289° |
| 2026-04-15 15:20 | 41.40369 | -7.49513 | 20798 ft | 302 kts | 305° |
| 2026-04-15 15:20 | 41.41749 | -7.51622 | 20439 ft | 303 kts | 308° |
| 2026-04-15 15:20 | 41.43194 | -7.53653 | 20109 ft | 303 kts | 309° |
| 2026-04-15 15:21 | 41.44656 | -7.55675 | 19781 ft | 301 kts | 309° |
| 2026-04-15 15:21 | 41.46107 | -7.57684 | 19450 ft | 300 kts | 309° |
| 2026-04-15 15:21 | 41.47550 | -7.59694 | 19142 ft | 299 kts | 309° |
| 2026-04-15 15:21 | 41.48978 | -7.61694 | 18826 ft | 297 kts | 309° |
| 2026-04-15 15:22 | 41.50398 | -7.63693 | 18506 ft | 296 kts | 309° |
| 2026-04-15 15:22 | 41.51813 | -7.65690 | 18141 ft | 296 kts | 309° |
| 2026-04-15 15:22 | 41.53202 | -7.67656 | 17813 ft | 294 kts | 309° |
| 2026-04-15 15:22 | 41.54598 | -7.69634 | 17481 ft | 292 kts | 309° |
| 2026-04-15 15:23 | 41.55984 | -7.71602 | 17154 ft | 290 kts | 309° |
| 2026-04-15 15:23 | 41.57363 | -7.73562 | 16843 ft | 288 kts | 309° |
| 2026-04-15 15:23 | 41.58726 | -7.75506 | 16547 ft | 285 kts | 309° |
| 2026-04-15 15:23 | 41.60081 | -7.77433 | 16199 ft | 284 kts | 309° |
| 2026-04-15 15:24 | 41.61428 | -7.79349 | 15918 ft | 282 kts | 309° |
| 2026-04-15 15:24 | 41.62767 | -7.81258 | 15594 ft | 280 kts | 309° |
| 2026-04-15 15:24 | 41.64097 | -7.83154 | 15296 ft | 279 kts | 309° |
| 2026-04-15 15:24 | 41.65422 | -7.85045 | 14988 ft | 278 kts | 309° |
| 2026-04-15 15:25 | 41.66739 | -7.86927 | 14691 ft | 277 kts | 309° |
| 2026-04-15 15:25 | 41.68055 | -7.88808 | 14389 ft | 276 kts | 309° |
| 2026-04-15 15:25 | 41.69368 | -7.90686 | 14094 ft | 276 kts | 309° |
| 2026-04-15 15:25 | 41.70680 | -7.92564 | 13760 ft | 276 kts | 309° |
| 2026-04-15 15:26 | 41.71990 | -7.94440 | 13442 ft | 275 kts | 309° |
| 2026-04-15 15:26 | 41.73296 | -7.96312 | 13121 ft | 275 kts | 309° |
| 2026-04-15 15:26 | 41.74599 | -7.98181 | 12814 ft | 275 kts | 309° |
| 2026-04-15 15:26 | 41.75901 | -8.00049 | 12470 ft | 273 kts | 309° |
| 2026-04-15 15:27 | 41.77186 | -8.01892 | 12202 ft | 269 kts | 309° |
| 2026-04-15 15:27 | 41.78465 | -8.03723 | 11905 ft | 268 kts | 309° |
| 2026-04-15 15:27 | 41.79710 | -8.05567 | 11601 ft | 265 kts | 302° |
| 2026-04-15 15:27 | 41.80402 | -8.07788 | 11355 ft | 258 kts | 275° |
| 2026-04-15 15:28 | 41.80354 | -8.10161 | 11325 ft | 255 kts | 257° |
| 2026-04-15 15:28 | 41.79713 | -8.12359 | 11289 ft | 251 kts | 243° |
| 2026-04-15 15:28 | 41.78853 | -8.14340 | 11247 ft | 241 kts | 240° |
| 2026-04-15 15:28 | 41.78010 | -8.16205 | 11268 ft | 228 kts | 240° |
| 2026-04-15 15:29 | 41.77223 | -8.17962 | 11241 ft | 217 kts | 241° |
| 2026-04-15 15:29 | 41.76463 | -8.19672 | 11258 ft | 211 kts | 241° |
| 2026-04-15 15:29 | 41.75717 | -8.21364 | 11276 ft | 213 kts | 241° |
| 2026-04-15 15:29 | 41.74957 | -8.23093 | 11286 ft | 218 kts | 241° |
| 2026-04-15 15:30 | 41.74192 | -8.24868 | 11288 ft | 221 kts | 242° |
| 2026-04-15 15:30 | 41.73440 | -8.26650 | 11087 ft | 221 kts | 242° |
| 2026-04-15 15:30 | 41.72663 | -8.28500 | 10333 ft | 238 kts | 242° |
| 2026-04-15 15:30 | 41.71818 | -8.30514 | 9459 ft | 255 kts | 242° |
| 2026-04-15 15:31 | 41.70940 | -8.32598 | 8861 ft | 258 kts | 242° |
| 2026-04-15 15:31 | 41.70067 | -8.34665 | 8704 ft | 253 kts | 242° |
| 2026-04-15 15:31 | 41.69201 | -8.36716 | 8538 ft | 253 kts | 242° |
| 2026-04-15 15:31 | 41.68334 | -8.38769 | 8428 ft | 254 kts | 242° |
| 2026-04-15 15:32 | 41.67463 | -8.40829 | 8293 ft | 255 kts | 242° |
| 2026-04-15 15:32 | 41.66587 | -8.42900 | 8173 ft | 256 kts | 242° |
| 2026-04-15 15:32 | 41.65710 | -8.44971 | 8067 ft | 256 kts | 242° |
| 2026-04-15 15:32 | 41.64831 | -8.47045 | 7946 ft | 256 kts | 242° |
| 2026-04-15 15:33 | 41.63951 | -8.49124 | 7827 ft | 258 kts | 242° |
| 2026-04-15 15:33 | 41.63066 | -8.51210 | 7723 ft | 258 kts | 242° |
| 2026-04-15 15:33 | 41.62180 | -8.53300 | 7590 ft | 258 kts | 242° |
| 2026-04-15 15:33 | 41.61309 | -8.55348 | 7499 ft | 247 kts | 242° |
| 2026-04-15 15:34 | 41.60470 | -8.57319 | 7395 ft | 242 kts | 242° |
| 2026-04-15 15:34 | 41.59634 | -8.59266 | 7198 ft | 244 kts | 240° |
| 2026-04-15 15:34 | 41.58718 | -8.61196 | 6899 ft | 247 kts | 238° |
| 2026-04-15 15:34 | 41.57775 | -8.63115 | 6581 ft | 245 kts | 238° |
| 2026-04-15 15:35 | 41.56852 | -8.64994 | 6256 ft | 238 kts | 238° |
| 2026-04-15 15:35 | 41.55962 | -8.66816 | 5969 ft | 231 kts | 238° |
| 2026-04-15 15:35 | 41.55091 | -8.68601 | 5672 ft | 228 kts | 238° |
| 2026-04-15 15:35 | 41.54251 | -8.70325 | 5395 ft | 221 kts | 238° |
| 2026-04-15 15:36 | 41.53412 | -8.72048 | 5120 ft | 216 kts | 238° |
| 2026-04-15 15:36 | 41.52560 | -8.73690 | 4845 ft | 215 kts | 229° |
| 2026-04-15 15:36 | 41.51265 | -8.74601 | 4657 ft | 216 kts | 187° |
| 2026-04-15 15:36 | 41.49753 | -8.74483 | 4440 ft | 221 kts | 176° |
| 2026-04-15 15:37 | 41.48232 | -8.74219 | 4159 ft | 217 kts | 173° |
| 2026-04-15 15:37 | 41.46775 | -8.73879 | 3918 ft | 207 kts | 171° |
| 2026-04-15 15:37 | 41.45392 | -8.73524 | 3658 ft | 198 kts | 171° |
| 2026-04-15 15:37 | 41.44066 | -8.73176 | 3427 ft | 191 kts | 170° |
| 2026-04-15 15:38 | 41.42780 | -8.72839 | 3204 ft | 187 kts | 170° |
| 2026-04-15 15:38 | 41.41527 | -8.72510 | 2982 ft | 180 kts | 170° |
| 2026-04-15 15:38 | 41.40307 | -8.72189 | 2777 ft | 176 kts | 170° |
| 2026-04-15 15:38 | 41.39116 | -8.71878 | 2552 ft | 172 kts | 170° |
| 2026-04-15 15:39 | 41.37956 | -8.71573 | 2336 ft | 169 kts | 171° |
| 2026-04-15 15:39 | 41.36797 | -8.71270 | 2129 ft | 169 kts | 171° |
| 2026-04-15 15:39 | 41.35644 | -8.70967 | 1948 ft | 169 kts | 172° |
| 2026-04-15 15:39 | 41.34495 | -8.70667 | 1735 ft | 168 kts | 171° |
| 2026-04-15 15:40 | 41.33378 | -8.70372 | 1542 ft | 156 kts | 171° |
| 2026-04-15 15:40 | 41.32331 | -8.70119 | 1329 ft | 151 kts | 176° |
| 2026-04-15 15:40 | 41.31324 | -8.69866 | 1150 ft | 146 kts | 171° |
| 2026-04-15 15:40 | 41.30330 | -8.69577 | 966 ft | 145 kts | 173° |
| 2026-04-15 15:41 | 41.29351 | -8.69320 | 807 ft | 142 kts | 174° |
| 2026-04-15 15:41 | 41.28377 | -8.69062 | 621 ft | 142 kts | 174° |
| 2026-04-15 15:41 | 41.27420 | -8.68818 | 428 ft | 139 kts | 174° |
| 2026-04-15 15:41 | 41.26476 | -8.68573 | 260 ft | 141 kts | 171° |
| 2026-04-15 15:42 | 41.25523 | -8.68311 | 182 ft | 136 kts | 171° |
| 2026-04-15 15:42 | 41.24703 | -8.68101 | 200 ft | 100 kts | 168° |
| 2026-04-15 15:42 | 41.24175 | -8.67960 | 213 ft | 55 kts | 168° |
| 2026-04-15 15:42 | 41.23936 | -8.67895 | 220 ft | 21 kts | 163° |
| 2026-04-15 15:43 | 41.23895 | -8.67798 | 221 ft | 9 kts | 84° |
| 2026-04-15 15:43 | 41.23903 | -8.67743 | 224 ft | 9 kts | 79° |
| 2026-04-15 15:43 | 41.23911 | -8.67685 | 228 ft | 4 kts | 79° |
| 2026-04-15 15:43 | 41.23917 | -8.67645 | 230 ft | 4 kts | 79° |
| 2026-04-15 15:44 | 41.23923 | -8.67606 | 232 ft | 4 kts | 78° |
| 2026-04-15 15:44 | 41.23929 | -8.67564 | 234 ft | 5 kts | 78° |
| 2026-04-15 15:44 | 41.23938 | -8.67513 | 237 ft | 7 kts | 76° |
| 2026-04-15 15:44 | 41.23933 | -8.67449 | 239 ft | 7 kts | 117° |
| 2026-04-15 15:45 | 41.23914 | -8.67410 | 241 ft | 4 kts | 124° |
| 2026-04-15 15:45 | 41.23904 | -8.67393 | 242 ft | 2 kts | 126° |
| 2026-04-15 15:45 | 41.23903 | -8.67390 | 242 ft | 0 kts | 124° |